createdAt,value
2017-06-25T00:00:25.192Z,0
2017-06-25T00:01:25.182Z,0
2017-06-25T00:02:25.154Z,0
2017-06-25T00:03:25.264Z,0
2017-06-25T00:04:25.128Z,0
2017-06-25T00:05:25.105Z,0
2017-06-25T00:06:24.768Z,0
2017-06-25T00:07:25.056Z,0
2017-06-25T00:08:25.031Z,0
2017-06-25T00:09:25.014Z,0
2017-06-25T00:10:24.741Z,0
2017-06-25T00:11:25.032Z,0
2017-06-25T00:12:25.014Z,0
2017-06-25T00:13:24.948Z,0
2017-06-25T00:14:24.913Z,0
2017-06-25T00:15:24.899Z,0
2017-06-25T00:16:24.881Z,0
2017-06-25T00:17:24.858Z,0
2017-06-25T00:18:24.833Z,0
2017-06-25T00:19:24.578Z,0
2017-06-25T00:20:24.892Z,0
2017-06-25T00:21:24.770Z,0
2017-06-25T00:22:24.758Z,0
2017-06-25T00:23:24.781Z,0
2017-06-25T00:24:24.721Z,0
2017-06-25T00:25:24.685Z,0
2017-06-25T00:26:24.676Z,0
2017-06-25T00:27:24.659Z,0
2017-06-25T00:28:24.637Z,0
2017-06-25T00:29:24.712Z,0
2017-06-25T00:30:24.591Z,0
2017-06-25T00:31:24.624Z,0
2017-06-25T00:32:24.560Z,0
2017-06-25T00:33:24.534Z,0
2017-06-25T00:34:24.217Z,0
2017-06-25T00:35:24.510Z,0
2017-06-25T00:36:24.477Z,0
2017-06-25T00:37:24.454Z,0
2017-06-25T00:38:24.431Z,0
2017-06-25T00:39:24.417Z,0
2017-06-25T00:40:24.392Z,0
2017-06-25T00:41:24.381Z,0
2017-06-25T00:42:24.367Z,0
2017-06-25T00:43:24.037Z,0
2017-06-25T00:44:24.319Z,0
2017-06-25T00:45:24.300Z,0
2017-06-25T00:46:24.275Z,0
2017-06-25T00:47:24.262Z,0
2017-06-25T00:48:24.236Z,0
2017-06-25T00:49:24.221Z,0
2017-06-25T00:50:24.199Z,0
2017-06-25T00:51:24.175Z,0
2017-06-25T00:52:23.854Z,0
2017-06-25T00:53:24.143Z,0
2017-06-25T00:54:23.816Z,0
2017-06-25T00:55:24.102Z,0
2017-06-25T00:56:24.080Z,0
2017-06-25T00:57:23.761Z,0
2017-06-25T00:58:24.100Z,0
2017-06-25T00:59:24.025Z,0
2017-06-25T01:00:24.049Z,0
2017-06-25T01:01:23.975Z,0
2017-06-25T01:02:23.648Z,0
2017-06-25T01:03:23.932Z,0
2017-06-25T01:04:23.925Z,0
2017-06-25T01:05:23.896Z,0
2017-06-25T01:06:23.871Z,0
2017-06-25T01:07:23.857Z,0
2017-06-25T01:08:23.835Z,0
2017-06-25T01:09:23.819Z,0
2017-06-25T01:10:23.858Z,0
2017-06-25T01:11:23.826Z,0
2017-06-25T01:12:23.761Z,0
2017-06-25T01:13:23.738Z,0
2017-06-25T01:14:23.719Z,0
2017-06-25T01:15:23.701Z,0
2017-06-25T01:16:23.668Z,0
2017-06-25T01:17:23.665Z,0
2017-06-25T01:18:23.337Z,0
2017-06-25T01:19:23.614Z,0
2017-06-25T01:20:23.605Z,0
2017-06-25T01:21:23.577Z,0
2017-06-25T01:22:23.255Z,0
2017-06-25T01:23:23.538Z,0
2017-06-25T01:24:23.514Z,0
2017-06-25T01:25:23.495Z,0
2017-06-25T01:26:23.476Z,0
2017-06-25T01:27:23.467Z,0
2017-06-25T01:28:23.430Z,0
2017-06-25T01:29:23.113Z,0
2017-06-25T01:30:23.391Z,0
2017-06-25T01:31:23.380Z,0
2017-06-25T01:32:23.361Z,0
2017-06-25T01:33:23.028Z,0
2017-06-25T01:34:23.021Z,0
2017-06-25T01:35:23.345Z,0
2017-06-25T01:36:23.274Z,0
2017-06-25T01:37:23.261Z,0
2017-06-25T01:38:23.233Z,0
2017-06-25T01:39:23.228Z,0
2017-06-25T01:40:23.349Z,0
2017-06-25T01:41:23.289Z,0
2017-06-25T01:42:23.005Z,0
2017-06-25T01:43:23.274Z,0
2017-06-25T01:44:23.255Z,0
2017-06-25T01:45:23.538Z,0
2017-06-25T01:46:23.233Z,0
2017-06-25T01:47:22.817Z,0
2017-06-25T01:48:22.912Z,0
2017-06-25T01:49:23.131Z,0
2017-06-25T01:50:23.141Z,0
2017-06-25T01:51:22.827Z,0
2017-06-25T01:52:22.793Z,0
2017-06-25T01:53:22.699Z,0
2017-06-25T01:54:22.983Z,0
2017-06-25T01:55:23.016Z,0
2017-06-25T01:56:23.039Z,0
2017-06-25T01:57:22.108Z,0
2017-06-25T01:58:22.406Z,0
2017-06-25T01:59:22.896Z,0
2017-06-25T02:00:22.937Z,0
2017-06-25T02:01:22.566Z,0
2017-06-25T02:02:22.753Z,0
2017-06-25T02:03:22.741Z,0
2017-06-25T02:04:22.775Z,0
2017-06-25T02:05:22.398Z,0
2017-06-25T02:06:22.675Z,0
2017-06-25T02:07:22.652Z,0
2017-06-25T02:08:22.895Z,0
2017-06-25T02:09:22.612Z,0
2017-06-25T02:10:22.302Z,0
2017-06-25T02:11:22.634Z,0
2017-06-25T02:12:22.614Z,0
2017-06-25T02:13:22.582Z,0
2017-06-25T02:14:22.215Z,0
2017-06-25T02:15:21.596Z,0
2017-06-25T02:16:22.175Z,0
2017-06-25T02:17:22.452Z,0
2017-06-25T02:18:22.438Z,0
2017-06-25T02:19:22.118Z,0
2017-06-25T02:20:22.396Z,0
2017-06-25T02:21:22.375Z,0
2017-06-25T02:22:22.369Z,0
2017-06-25T02:23:22.339Z,0
2017-06-25T02:24:22.305Z,0
2017-06-25T02:25:22.288Z,0
2017-06-25T02:26:22.270Z,0
2017-06-25T02:27:22.247Z,0
2017-06-25T02:28:22.295Z,0
2017-06-25T02:29:22.221Z,0
2017-06-25T02:30:22.216Z,0
2017-06-25T02:31:22.168Z,0
2017-06-25T02:32:21.856Z,0
2017-06-25T02:33:21.832Z,0
2017-06-25T02:34:22.112Z,0
2017-06-25T02:35:21.790Z,0
2017-06-25T02:36:22.073Z,0
2017-06-25T02:37:21.752Z,0
2017-06-25T02:38:22.037Z,4
2017-06-25T02:39:22.007Z,4
2017-06-25T02:40:21.692Z,4
2017-06-25T02:41:21.674Z,4
2017-06-25T02:42:21.650Z,4
2017-06-25T02:43:21.928Z,4
2017-06-25T02:44:21.655Z,0
2017-06-25T02:45:21.896Z,0
2017-06-25T02:46:21.880Z,0
2017-06-25T02:47:21.850Z,0
2017-06-25T02:48:21.885Z,0
2017-06-25T02:49:21.819Z,4
2017-06-25T02:50:21.893Z,4
2017-06-25T02:51:21.765Z,4
2017-06-25T02:52:21.749Z,4
2017-06-25T02:53:21.735Z,4
2017-06-25T02:54:21.710Z,8
2017-06-25T02:55:21.688Z,8
2017-06-25T02:56:21.667Z,8
2017-06-25T02:57:21.651Z,8
2017-06-25T02:58:21.635Z,12
2017-06-25T02:59:21.615Z,12
2017-06-25T03:00:21.591Z,12
2017-06-25T03:01:21.570Z,12
2017-06-25T03:02:21.570Z,16
2017-06-25T03:03:21.532Z,12
2017-06-25T03:04:21.512Z,16
2017-06-25T03:05:21.488Z,24
2017-06-25T03:06:21.467Z,28
2017-06-25T03:07:21.449Z,28
2017-06-25T03:08:21.136Z,36
2017-06-25T03:09:21.157Z,44
2017-06-25T03:10:21.391Z,56
2017-06-25T03:11:21.384Z,56
2017-06-25T03:12:21.359Z,60
2017-06-25T03:13:21.327Z,72
2017-06-25T03:14:21.306Z,72
2017-06-25T03:15:21.085Z,68
2017-06-25T03:16:21.266Z,64
2017-06-25T03:17:21.254Z,68
2017-06-25T03:18:21.230Z,68
2017-06-25T03:19:21.206Z,68
2017-06-25T03:20:21.193Z,96
2017-06-25T03:21:20.874Z,120
2017-06-25T03:22:21.155Z,140
2017-06-25T03:23:21.130Z,176
2017-06-25T03:24:21.106Z,160
2017-06-25T03:25:21.134Z,196
2017-06-25T03:26:21.076Z,200
2017-06-25T03:27:21.057Z,212
2017-06-25T03:28:21.027Z,204
2017-06-25T03:29:20.709Z,176
2017-06-25T03:30:20.988Z,140
2017-06-25T03:31:20.974Z,120
2017-06-25T03:32:20.955Z,116
2017-06-25T03:33:20.935Z,128
2017-06-25T03:34:20.912Z,160
2017-06-25T03:35:20.949Z,184
2017-06-25T03:36:20.872Z,188
2017-06-25T03:37:20.914Z,224
2017-06-25T03:38:20.823Z,204
2017-06-25T03:39:20.811Z,220
2017-06-25T03:40:20.786Z,216
2017-06-25T03:41:20.772Z,272
2017-06-25T03:42:20.842Z,260
2017-06-25T03:43:20.471Z,272
2017-06-25T03:44:20.712Z,268
2017-06-25T03:45:20.935Z,272
2017-06-25T03:46:20.661Z,284
2017-06-25T03:47:20.654Z,208
2017-06-25T03:48:20.633Z,280
2017-06-25T03:49:20.612Z,260
2017-06-25T03:50:20.283Z,236
2017-06-25T03:51:20.568Z,272
2017-06-25T03:52:20.597Z,248
2017-06-25T03:53:20.532Z,252
2017-06-25T03:54:20.500Z,284
2017-06-25T03:55:20.491Z,284
2017-06-25T03:56:20.523Z,312
2017-06-25T03:57:20.453Z,308
2017-06-25T03:58:20.427Z,300
2017-06-25T03:59:20.403Z,356
2017-06-25T04:00:19.784Z,388
2017-06-25T04:01:20.377Z,356
2017-06-25T04:02:20.352Z,404
2017-06-25T04:03:20.339Z,476
2017-06-25T04:04:20.308Z,532
2017-06-25T04:05:20.282Z,512
2017-06-25T04:06:20.267Z,508
2017-06-25T04:07:20.250Z,464
2017-06-25T04:08:19.919Z,464
2017-06-25T04:09:20.205Z,428
2017-06-25T04:10:20.234Z,412
2017-06-25T04:11:20.167Z,300
2017-06-25T04:12:20.138Z,300
2017-06-25T04:13:20.123Z,296
2017-06-25T04:14:20.109Z,376
2017-06-25T04:15:20.083Z,328
2017-06-25T04:16:19.771Z,284
2017-06-25T04:17:20.046Z,296
2017-06-25T04:18:20.017Z,272
2017-06-25T04:19:20.015Z,264
2017-06-25T04:20:19.977Z,284
2017-06-25T04:21:19.961Z,332
2017-06-25T04:22:19.942Z,396
2017-06-25T04:23:19.921Z,388
2017-06-25T04:24:19.908Z,480
2017-06-25T04:25:19.886Z,464
2017-06-25T04:26:19.869Z,460
2017-06-25T04:27:19.852Z,560
2017-06-25T04:28:19.826Z,624
2017-06-25T04:29:19.499Z,676
2017-06-25T04:30:19.784Z,768
2017-06-25T04:31:19.769Z,904
2017-06-25T04:32:19.745Z,740
2017-06-25T04:33:19.723Z,832
2017-06-25T04:34:19.699Z,748
2017-06-25T04:35:19.681Z,724
2017-06-25T04:36:19.666Z,720
2017-06-25T04:37:19.646Z,480
2017-06-25T04:38:19.624Z,460
2017-06-25T04:39:19.602Z,440
2017-06-25T04:40:19.586Z,460
2017-06-25T04:41:19.562Z,492
2017-06-25T04:42:19.545Z,464
2017-06-25T04:43:19.520Z,464
2017-06-25T04:44:19.502Z,536
2017-06-25T04:45:19.486Z,584
2017-06-25T04:46:19.466Z,708
2017-06-25T04:47:19.444Z,756
2017-06-25T04:48:19.419Z,840
2017-06-25T04:49:19.096Z,892
2017-06-25T04:50:19.385Z,1024
2017-06-25T04:51:19.364Z,948
2017-06-25T04:52:19.331Z,1004
2017-06-25T04:53:19.316Z,1064
2017-06-25T04:54:19.300Z,888
2017-06-25T04:55:19.275Z,904
2017-06-25T04:56:19.260Z,856
2017-06-25T04:57:19.238Z,896
2017-06-25T04:58:19.270Z,1032
2017-06-25T04:59:18.946Z,1080
2017-06-25T05:00:18.877Z,1316
2017-06-25T05:01:19.159Z,1460
2017-06-25T05:02:19.140Z,1228
2017-06-25T05:03:19.127Z,1312
2017-06-25T05:04:19.102Z,1416
2017-06-25T05:05:19.091Z,1540
2017-06-25T05:06:19.061Z,1552
2017-06-25T05:07:19.040Z,1908
2017-06-25T05:08:19.015Z,2056
2017-06-25T05:09:19.042Z,1892
2017-06-25T05:10:18.977Z,1992
2017-06-25T05:11:18.962Z,1652
2017-06-25T05:12:18.933Z,1532
2017-06-25T05:13:18.913Z,1396
2017-06-25T05:14:18.902Z,1148
2017-06-25T05:15:18.574Z,1048
2017-06-25T05:16:18.862Z,988
2017-06-25T05:17:18.844Z,1068
2017-06-25T05:18:18.827Z,1100
2017-06-25T05:19:18.794Z,888
2017-06-25T05:20:18.786Z,1104
2017-06-25T05:21:18.755Z,1292
2017-06-25T05:22:18.737Z,1620
2017-06-25T05:23:18.775Z,1764
2017-06-25T05:24:18.688Z,1532
2017-06-25T05:25:18.687Z,1172
2017-06-25T05:26:18.658Z,1040
2017-06-25T05:27:18.639Z,1116
2017-06-25T05:28:18.621Z,1260
2017-06-25T05:29:18.601Z,1352
2017-06-25T05:30:18.574Z,1748
2017-06-25T05:31:18.564Z,1928
2017-06-25T05:32:18.539Z,1496
2017-06-25T05:33:18.520Z,1368
2017-06-25T05:34:18.500Z,1424
2017-06-25T05:35:18.481Z,1416
2017-06-25T05:36:18.456Z,1144
2017-06-25T05:37:18.438Z,1104
2017-06-25T05:38:18.417Z,1208
2017-06-25T05:39:18.391Z,1292
2017-06-25T05:40:18.379Z,1260
2017-06-25T05:41:18.353Z,1456
2017-06-25T05:42:18.334Z,1332
2017-06-25T05:43:18.309Z,1300
2017-06-25T05:44:18.299Z,1412
2017-06-25T05:45:18.269Z,2176
2017-06-25T05:46:18.308Z,2520
2017-06-25T05:47:18.232Z,2548
2017-06-25T05:48:18.220Z,3752
2017-06-25T05:49:18.201Z,5520
2017-06-25T05:50:18.173Z,6176
2017-06-25T05:51:18.158Z,6336
2017-06-25T05:52:18.134Z,5316
2017-06-25T05:53:18.118Z,4140
2017-06-25T05:54:18.102Z,3628
2017-06-25T05:55:18.075Z,4320
2017-06-25T05:56:18.057Z,3912
2017-06-25T05:57:18.043Z,3008
2017-06-25T05:58:18.021Z,2956
2017-06-25T05:59:17.992Z,3320
2017-06-25T06:00:17.390Z,3100
2017-06-25T06:01:17.961Z,4000
2017-06-25T06:02:17.936Z,4332
2017-06-25T06:03:17.967Z,4532
2017-06-25T06:04:17.921Z,4556
2017-06-25T06:05:17.279Z,4352
2017-06-25T06:06:17.866Z,4188
2017-06-25T06:07:17.844Z,4668
2017-06-25T06:08:17.811Z,3736
2017-06-25T06:09:17.804Z,3036
2017-06-25T06:10:17.826Z,3056
2017-06-25T06:11:18.007Z,3536
2017-06-25T06:12:17.735Z,3624
2017-06-25T06:13:17.721Z,3600
2017-06-25T06:14:17.699Z,3212
2017-06-25T06:15:17.686Z,3200
2017-06-25T06:16:17.663Z,3272
2017-06-25T06:17:17.340Z,3940
2017-06-25T06:18:17.620Z,4788
2017-06-25T06:19:17.661Z,5564
2017-06-25T06:20:17.581Z,6152
2017-06-25T06:21:17.573Z,5952
2017-06-25T06:22:17.542Z,8132
2017-06-25T06:23:17.577Z,9164
2017-06-25T06:24:17.499Z,7656
2017-06-25T06:25:17.185Z,8248
2017-06-25T06:26:17.463Z,9668
2017-06-25T06:27:17.446Z,9156
2017-06-25T06:28:17.432Z,8520
2017-06-25T06:29:17.414Z,6980
2017-06-25T06:30:17.387Z,7480
2017-06-25T06:31:17.067Z,7236
2017-06-25T06:32:17.346Z,8272
2017-06-25T06:33:17.384Z,8168
2017-06-25T06:34:17.311Z,7380
2017-06-25T06:35:17.286Z,7532
2017-06-25T06:36:17.265Z,7360
2017-06-25T06:37:17.251Z,6432
2017-06-25T06:38:17.228Z,7944
2017-06-25T06:39:17.225Z,8904
2017-06-25T06:40:17.193Z,8360
2017-06-25T06:41:16.869Z,11256
2017-06-25T06:42:17.153Z,10684
2017-06-25T06:43:17.136Z,9884
2017-06-25T06:44:17.167Z,8832
2017-06-25T06:45:16.800Z,7024
2017-06-25T06:46:17.083Z,5268
2017-06-25T06:47:17.061Z,5656
2017-06-25T06:48:17.093Z,4776
2017-06-25T06:49:17.036Z,3752
2017-06-25T06:50:17.010Z,4820
2017-06-25T06:51:16.983Z,3976
2017-06-25T06:52:16.966Z,3568
2017-06-25T06:53:16.987Z,4816
2017-06-25T06:54:16.928Z,3864
2017-06-25T06:55:16.917Z,2344
2017-06-25T06:56:16.634Z,3640
2017-06-25T06:57:16.891Z,4424
2017-06-25T06:58:16.856Z,4516
2017-06-25T06:59:16.833Z,4812
2017-06-25T07:00:16.913Z,4516
2017-06-25T07:01:16.829Z,4336
2017-06-25T07:02:16.821Z,6588
2017-06-25T07:03:16.805Z,7144
2017-06-25T07:04:16.734Z,7664
2017-06-25T07:05:16.724Z,9948
2017-06-25T07:06:16.397Z,8692
2017-06-25T07:07:16.679Z,8352
2017-06-25T07:08:16.659Z,6384
2017-06-25T07:09:16.696Z,7704
2017-06-25T07:10:16.634Z,6332
2017-06-25T07:11:16.298Z,6700
2017-06-25T07:12:16.586Z,7996
2017-06-25T07:13:16.306Z,7924
2017-06-25T07:14:16.238Z,10960
2017-06-25T07:15:16.521Z,13128
2017-06-25T07:16:16.255Z,14336
2017-06-25T07:17:16.488Z,12656
2017-06-25T07:18:16.464Z,9876
2017-06-25T07:19:16.459Z,9072
2017-06-25T07:20:16.423Z,7208
2017-06-25T07:21:16.410Z,7864
2017-06-25T07:22:16.384Z,7100
2017-06-25T07:23:16.678Z,6960
2017-06-25T07:24:16.405Z,5696
2017-06-25T07:25:16.332Z,6120
2017-06-25T07:26:16.322Z,8924
2017-06-25T07:27:16.296Z,6900
2017-06-25T07:28:16.273Z,9812
2017-06-25T07:29:16.290Z,12288
2017-06-25T07:30:16.251Z,10884
2017-06-25T07:31:16.226Z,10432
2017-06-25T07:32:16.207Z,6828
2017-06-25T07:33:15.877Z,7296
2017-06-25T07:34:15.910Z,5992
2017-06-25T07:35:16.151Z,6708
2017-06-25T07:36:16.127Z,7304
2017-06-25T07:37:16.103Z,6144
2017-06-25T07:38:16.079Z,6976
2017-06-25T07:39:16.070Z,5360
2017-06-25T07:40:16.053Z,5708
2017-06-25T07:41:16.029Z,10380
2017-06-25T07:42:15.708Z,9320
2017-06-25T07:43:15.689Z,11484
2017-06-25T07:44:15.974Z,12568
2017-06-25T07:45:15.957Z,9476
2017-06-25T07:46:15.940Z,11268
2017-06-25T07:47:15.917Z,7208
2017-06-25T07:48:15.912Z,5052
2017-06-25T07:49:15.578Z,4156
2017-06-25T07:50:15.859Z,5540
2017-06-25T07:51:15.856Z,6620
2017-06-25T07:52:15.832Z,8704
2017-06-25T07:53:15.813Z,11752
2017-06-25T07:54:15.794Z,12248
2017-06-25T07:55:15.766Z,12268
2017-06-25T07:56:15.755Z,15080
2017-06-25T07:57:15.730Z,15372
2017-06-25T07:58:15.720Z,12924
2017-06-25T07:59:15.693Z,12368
2017-06-25T08:00:15.705Z,11864
2017-06-25T08:01:15.652Z,11332
2017-06-25T08:02:15.848Z,13676
2017-06-25T08:03:15.623Z,13068
2017-06-25T08:04:15.608Z,15388
2017-06-25T08:05:15.591Z,12424
2017-06-25T08:06:15.568Z,8896
2017-06-25T08:07:15.544Z,6684
2017-06-25T08:08:15.520Z,5860
2017-06-25T08:09:15.503Z,6516
2017-06-25T08:10:15.542Z,5704
2017-06-25T08:11:15.474Z,4796
2017-06-25T08:12:15.453Z,4480
2017-06-25T08:13:15.431Z,4256
2017-06-25T08:14:15.440Z,3248
2017-06-25T08:15:15.094Z,2152
2017-06-25T08:16:15.375Z,2624
2017-06-25T08:17:15.406Z,2884
2017-06-25T08:18:15.345Z,1700
2017-06-25T08:19:15.323Z,1500
2017-06-25T08:20:14.996Z,1780
2017-06-25T08:21:15.278Z,1612
2017-06-25T08:22:15.262Z,1660
2017-06-25T08:23:15.263Z,1744
2017-06-25T08:24:15.233Z,1540
2017-06-25T08:25:15.213Z,1272
2017-06-25T08:26:15.189Z,2452
2017-06-25T08:27:15.173Z,2820
2017-06-25T08:28:15.146Z,2864
2017-06-25T08:29:14.825Z,3776
2017-06-25T08:30:15.107Z,4040
2017-06-25T08:31:15.095Z,3968
2017-06-25T08:32:15.071Z,5140
2017-06-25T08:33:15.040Z,5220
2017-06-25T08:34:15.028Z,4904
2017-06-25T08:35:15.008Z,4868
2017-06-25T08:36:14.987Z,4396
2017-06-25T08:37:14.975Z,4156
2017-06-25T08:38:14.946Z,3944
2017-06-25T08:39:14.630Z,4012
2017-06-25T08:40:14.902Z,4084
2017-06-25T08:41:14.583Z,4108
2017-06-25T08:42:14.573Z,4020
2017-06-25T08:43:14.852Z,3956
2017-06-25T08:44:14.877Z,3868
2017-06-25T08:45:14.814Z,4264
2017-06-25T08:46:14.489Z,4720
2017-06-25T08:47:14.797Z,5192
2017-06-25T08:48:14.766Z,5888
2017-06-25T08:49:14.784Z,7552
2017-06-25T08:50:14.714Z,9328
2017-06-25T08:51:14.696Z,11676
2017-06-25T08:52:14.691Z,13032
2017-06-25T08:53:14.661Z,11972
2017-06-25T08:54:14.631Z,9988
2017-06-25T08:55:14.618Z,8124
2017-06-25T08:56:14.592Z,7328
2017-06-25T08:57:14.625Z,7488
2017-06-25T08:58:14.556Z,9016
2017-06-25T08:59:14.531Z,11504
2017-06-25T09:00:14.522Z,16252
2017-06-25T09:01:14.500Z,19104
2017-06-25T09:02:14.527Z,21600
2017-06-25T09:03:14.146Z,41568
2017-06-25T09:04:14.443Z,73856
2017-06-25T09:05:14.431Z,26528
2017-06-25T09:06:14.401Z,22112
2017-06-25T09:07:14.430Z,22592
2017-06-25T09:08:14.057Z,28352
2017-06-25T09:09:14.343Z,43584
2017-06-25T09:10:14.317Z,78144
2017-06-25T09:11:14.300Z,78624
2017-06-25T09:12:13.987Z,37984
2017-06-25T09:13:13.961Z,31200
2017-06-25T09:14:14.248Z,26944
2017-06-25T09:15:13.924Z,21120
2017-06-25T09:16:14.209Z,15828
2017-06-25T09:17:14.201Z,12692
2017-06-25T09:18:13.874Z,10976
2017-06-25T09:19:13.562Z,10508
2017-06-25T09:20:14.195Z,7220
2017-06-25T09:21:14.134Z,8456
2017-06-25T09:22:13.822Z,7956
2017-06-25T09:23:14.105Z,5468
2017-06-25T09:24:14.080Z,5500
2017-06-25T09:25:14.131Z,9236
2017-06-25T09:26:14.044Z,7324
2017-06-25T09:27:14.028Z,5892
2017-06-25T09:28:14.003Z,4840
2017-06-25T09:29:13.990Z,4684
2017-06-25T09:30:14.020Z,4744
2017-06-25T09:31:13.958Z,4752
2017-06-25T09:32:13.637Z,6216
2017-06-25T09:33:13.613Z,7664
2017-06-25T09:34:13.896Z,9548
2017-06-25T09:35:13.885Z,9660
2017-06-25T09:36:13.867Z,10704
2017-06-25T09:37:13.838Z,13380
2017-06-25T09:38:13.881Z,15444
2017-06-25T09:39:13.816Z,17440
2017-06-25T09:40:13.793Z,17760
2017-06-25T09:41:13.471Z,18848
2017-06-25T09:42:13.756Z,19104
2017-06-25T09:43:13.737Z,18432
2017-06-25T09:44:13.708Z,18080
2017-06-25T09:45:13.697Z,17792
2017-06-25T09:46:13.678Z,19488
2017-06-25T09:47:13.655Z,20480
2017-06-25T09:48:13.646Z,19936
2017-06-25T09:49:13.617Z,20032
2017-06-25T09:50:13.613Z,19872
2017-06-25T09:51:13.583Z,19360
2017-06-25T09:52:13.569Z,21344
2017-06-25T09:53:13.563Z,22656
2017-06-25T09:54:13.530Z,24576
2017-06-25T09:55:13.224Z,21152
2017-06-25T09:56:13.187Z,18656
2017-06-25T09:57:13.173Z,15580
2017-06-25T09:58:13.471Z,11040
2017-06-25T09:59:13.445Z,9192
2017-06-25T10:00:13.420Z,8468
2017-06-25T10:01:13.404Z,8628
2017-06-25T10:02:13.390Z,8124
2017-06-25T10:03:13.373Z,6900
2017-06-25T10:04:13.351Z,4680
2017-06-25T10:05:13.354Z,3628
2017-06-25T10:06:13.330Z,3852
2017-06-25T10:07:13.302Z,4088
2017-06-25T10:08:13.286Z,5992
2017-06-25T10:09:13.274Z,5376
2017-06-25T10:10:13.247Z,6308
2017-06-25T10:11:12.930Z,3536
2017-06-25T10:12:13.459Z,3384
2017-06-25T10:13:13.199Z,5072
2017-06-25T10:14:13.171Z,5540
2017-06-25T10:15:13.158Z,7340
2017-06-25T10:16:13.150Z,7144
2017-06-25T10:17:13.117Z,7984
2017-06-25T10:18:13.098Z,10148
2017-06-25T10:19:13.075Z,8844
2017-06-25T10:20:13.063Z,6396
2017-06-25T10:21:13.049Z,4756
2017-06-25T10:22:13.040Z,4300
2017-06-25T10:23:12.701Z,6712
2017-06-25T10:24:12.996Z,7320
2017-06-25T10:25:12.695Z,6184
2017-06-25T10:26:12.949Z,6672
2017-06-25T10:27:12.974Z,6888
2017-06-25T10:28:12.304Z,7128
2017-06-25T10:29:12.887Z,8400
2017-06-25T10:30:12.874Z,9008
2017-06-25T10:31:12.856Z,9688
2017-06-25T10:32:12.842Z,9968
2017-06-25T10:33:12.809Z,10736
2017-06-25T10:34:12.789Z,9864
2017-06-25T10:35:12.824Z,10256
2017-06-25T10:36:12.445Z,11244
2017-06-25T10:37:12.426Z,10484
2017-06-25T10:38:12.408Z,9724
2017-06-25T10:39:12.697Z,8928
2017-06-25T10:40:12.678Z,8868
2017-06-25T10:41:12.657Z,9348
2017-06-25T10:42:12.637Z,9600
2017-06-25T10:43:12.616Z,9388
2017-06-25T10:44:12.599Z,9012
2017-06-25T10:45:12.273Z,8880
2017-06-25T10:46:12.250Z,9052
2017-06-25T10:47:12.537Z,8960
2017-06-25T10:48:12.228Z,8888
2017-06-25T10:49:12.243Z,8500
2017-06-25T10:50:12.720Z,8240
2017-06-25T10:51:12.474Z,8232
2017-06-25T10:52:12.437Z,8328
2017-06-25T10:53:12.416Z,9016
2017-06-25T10:54:12.459Z,10252
2017-06-25T10:55:12.394Z,11480
2017-06-25T10:56:12.366Z,13124
2017-06-25T10:57:12.591Z,15028
2017-06-25T10:58:12.326Z,16420
2017-06-25T10:59:12.002Z,17376
2017-06-25T11:00:12.350Z,14240
2017-06-25T11:01:12.267Z,12596
2017-06-25T11:02:11.936Z,12312
2017-06-25T11:03:12.234Z,11396
2017-06-25T11:04:12.208Z,10692
2017-06-25T11:05:12.205Z,10280
2017-06-25T11:06:12.164Z,10144
2017-06-25T11:07:12.143Z,10308
2017-06-25T11:08:12.138Z,10580
2017-06-25T11:09:12.120Z,11172
2017-06-25T11:10:11.789Z,13148
2017-06-25T11:11:11.777Z,14744
2017-06-25T11:12:12.060Z,16048
2017-06-25T11:13:12.042Z,17152
2017-06-25T11:14:11.703Z,17184
2017-06-25T11:15:11.716Z,17376
2017-06-25T11:16:12.069Z,18272
2017-06-25T11:17:11.965Z,18816
2017-06-25T11:18:11.931Z,18848
2017-06-25T11:19:11.619Z,18400
2017-06-25T11:20:11.895Z,15768
2017-06-25T11:21:11.902Z,15888
2017-06-25T11:22:11.862Z,17408
2017-06-25T11:23:11.858Z,19552
2017-06-25T11:24:11.843Z,20352
2017-06-25T11:25:11.854Z,21792
2017-06-25T11:26:11.794Z,22400
2017-06-25T11:27:11.468Z,24992
2017-06-25T11:28:11.749Z,25792
2017-06-25T11:29:11.739Z,24736
2017-06-25T11:30:11.427Z,23520
2017-06-25T11:31:11.754Z,21984
2017-06-25T11:32:11.686Z,20704
2017-06-25T11:33:11.659Z,18528
2017-06-25T11:34:11.652Z,21408
2017-06-25T11:35:11.027Z,25792
2017-06-25T11:36:11.604Z,29760
2017-06-25T11:37:11.595Z,28512
2017-06-25T11:38:11.565Z,27392
2017-06-25T11:39:11.242Z,26624
2017-06-25T11:40:11.543Z,27520
2017-06-25T11:41:11.620Z,28960
2017-06-25T11:42:11.507Z,29440
2017-06-25T11:43:11.486Z,29216
2017-06-25T11:44:11.473Z,27424
2017-06-25T11:45:11.448Z,27360
2017-06-25T11:46:11.425Z,20480
2017-06-25T11:47:11.124Z,20000
2017-06-25T11:48:11.094Z,17248
2017-06-25T11:49:11.386Z,21024
2017-06-25T11:50:11.374Z,22368
2017-06-25T11:51:11.054Z,19488
2017-06-25T11:52:11.350Z,15392
2017-06-25T11:53:11.315Z,12768
2017-06-25T11:54:11.347Z,17280
2017-06-25T11:55:11.293Z,15692
2017-06-25T11:56:11.264Z,11524
2017-06-25T11:57:11.251Z,8800
2017-06-25T11:58:11.227Z,7536
2017-06-25T11:59:11.212Z,6228
2017-06-25T12:00:11.249Z,6356
2017-06-25T12:01:11.188Z,7824
2017-06-25T12:02:11.166Z,8632
2017-06-25T12:03:10.849Z,10828
2017-06-25T12:04:11.384Z,13060
2017-06-25T12:05:10.808Z,14584
2017-06-25T12:06:10.786Z,13812
2017-06-25T12:07:11.081Z,11708
2017-06-25T12:08:10.805Z,10420
2017-06-25T12:09:11.034Z,10868
2017-06-25T12:10:10.718Z,10936
2017-06-25T12:11:11.003Z,11020
2017-06-25T12:12:10.985Z,11064
2017-06-25T12:13:10.664Z,10884
2017-06-25T12:14:10.636Z,11124
2017-06-25T12:15:10.628Z,12836
2017-06-25T12:16:10.920Z,14672
2017-06-25T12:17:10.889Z,14416
2017-06-25T12:18:10.873Z,12184
2017-06-25T12:19:10.858Z,10556
2017-06-25T12:20:10.535Z,9860
2017-06-25T12:21:10.826Z,11264
2017-06-25T12:22:10.746Z,13728
2017-06-25T12:23:10.795Z,15520
2017-06-25T12:24:10.832Z,18432
2017-06-25T12:25:10.754Z,18688
2017-06-25T12:26:10.790Z,19136
2017-06-25T12:27:10.718Z,20416
2017-06-25T12:28:10.392Z,20000
2017-06-25T12:29:10.683Z,18048
2017-06-25T12:30:10.657Z,16928
2017-06-25T12:31:10.641Z,15376
2017-06-25T12:32:10.625Z,14320
2017-06-25T12:33:10.658Z,13316
2017-06-25T12:34:10.584Z,12932
2017-06-25T12:35:10.619Z,13800
2017-06-25T12:36:10.253Z,14284
2017-06-25T12:37:10.236Z,13040
2017-06-25T12:38:10.521Z,11364
2017-06-25T12:39:10.500Z,11216
2017-06-25T12:40:10.490Z,10632
2017-06-25T12:41:10.481Z,10228
2017-06-25T12:42:10.148Z,12008
2017-06-25T12:43:10.446Z,13648
2017-06-25T12:44:10.433Z,13976
2017-06-25T12:45:10.394Z,14060
2017-06-25T12:46:10.383Z,15292
2017-06-25T12:47:10.408Z,15276
2017-06-25T12:48:10.343Z,14756
2017-06-25T12:49:10.318Z,13996
2017-06-25T12:50:10.316Z,13268
2017-06-25T12:51:10.290Z,13004
2017-06-25T12:52:10.281Z,12104
2017-06-25T12:53:10.319Z,11360
2017-06-25T12:54:10.233Z,8236
2017-06-25T12:55:10.218Z,7112
2017-06-25T12:56:10.247Z,7880
2017-06-25T12:57:09.886Z,8400
2017-06-25T12:58:09.860Z,7052
2017-06-25T12:59:10.154Z,5360
2017-06-25T13:00:10.236Z,5384
2017-06-25T13:01:10.114Z,5500
2017-06-25T13:02:10.105Z,5864
2017-06-25T13:03:10.085Z,6100
2017-06-25T13:04:10.070Z,5388
2017-06-25T13:05:10.042Z,3952
2017-06-25T13:06:10.017Z,3164
2017-06-25T13:07:09.999Z,2840
2017-06-25T13:08:09.996Z,4004
2017-06-25T13:09:09.967Z,5768
2017-06-25T13:10:09.951Z,6756
2017-06-25T13:11:09.927Z,7436
2017-06-25T13:12:09.922Z,7168
2017-06-25T13:13:09.890Z,7536
2017-06-25T13:14:09.875Z,7140
2017-06-25T13:15:09.918Z,7356
2017-06-25T13:16:09.845Z,8044
2017-06-25T13:17:09.819Z,8396
2017-06-25T13:18:09.804Z,8720
2017-06-25T13:19:09.793Z,8688
2017-06-25T13:20:09.766Z,8400
2017-06-25T13:21:09.750Z,9136
2017-06-25T13:22:09.737Z,10532
2017-06-25T13:23:09.702Z,10960
2017-06-25T13:24:09.733Z,10240
2017-06-25T13:25:09.665Z,9556
2017-06-25T13:26:09.340Z,8468
2017-06-25T13:27:09.676Z,7712
2017-06-25T13:28:09.597Z,6804
2017-06-25T13:29:09.585Z,7228
2017-06-25T13:30:09.267Z,8232
2017-06-25T13:31:09.552Z,9108
2017-06-25T13:32:09.525Z,10268
2017-06-25T13:33:09.508Z,11972
2017-06-25T13:34:09.497Z,12068